sensor_id;sensor_type;location;lat;lon;timestamp;pressure;altitude;pressure_sealevel;temperature;humidity
10652;BME280;5374;42.742;23.266;2023-04-25T00:00:08;94669.94;;;11.63;100.00
10652;BME280;5374;42.742;23.266;2023-04-25T00:02:56;94635.47;;;11.48;100.00
10652;BME280;5374;42.742;23.266;2023-04-25T00:05:45;94650.53;;;11.58;100.00
10652;BME280;5374;42.742;23.266;2023-04-25T00:08:32;94657.44;;;11.64;100.00
10652;BME280;5374;42.742;23.266;2023-04-25T00:11:21;94644.44;;;11.57;100.00
10652;BME280;5374;42.742;23.266;2023-04-25T00:14:08;94636.44;;;11.62;100.00
10652;BME280;5374;42.742;23.266;2023-04-25T00:16:55;94627.38;;;11.69;100.00
10652;BME280;5374;42.742;23.266;2023-04-25T00:19:43;94606.25;;;11.43;100.00
10652;BME280;5374;42.742;23.266;2023-04-25T00:22:32;94647.00;;;11.78;100.00
10652;BME280;5374;42.742;23.266;2023-04-25T00:25:20;94643.25;;;11.84;100.00
10652;BME280;5374;42.742;23.266;2023-04-25T00:28:08;94667.84;;;11.99;100.00
10652;BME280;5374;42.742;23.266;2023-04-25T00:30:56;94664.88;;;12.11;100.00
10652;BME280;5374;42.742;23.266;2023-04-25T00:33:43;94659.78;;;12.15;100.00
10652;BME280;5374;42.742;23.266;2023-04-25T00:36:30;94657.38;;;12.18;100.00
10652;BME280;5374;42.742;23.266;2023-04-25T00:39:17;94652.50;;;12.25;100.00
10652;BME280;5374;42.742;23.266;2023-04-25T00:42:04;94636.53;;;12.25;100.00
10652;BME280;5374;42.742;23.266;2023-04-25T00:44:53;94638.63;;;12.28;100.00
10652;BME280;5374;42.742;23.266;2023-04-25T00:47:41;94640.97;;;12.35;100.00
10652;BME280;5374;42.742;23.266;2023-04-25T00:50:29;94634.31;;;12.38;100.00
10652;BME280;5374;42.742;23.266;2023-04-25T00:53:16;94639.56;;;12.43;100.00
10652;BME280;5374;42.742;23.266;2023-04-25T00:56:03;94633.13;;;12.49;100.00
10652;BME280;5374;42.742;23.266;2023-04-25T00:58:53;94634.19;;;12.48;100.00
10652;BME280;5374;42.742;23.266;2023-04-25T01:01:43;94636.06;;;12.47;100.00
10652;BME280;5374;42.742;23.266;2023-04-25T01:04:31;94624.69;;;12.42;100.00
10652;BME280;5374;42.742;23.266;2023-04-25T01:07:18;94622.81;;;12.42;100.00
10652;BME280;5374;42.742;23.266;2023-04-25T01:10:07;94618.25;;;12.43;100.00
10652;BME280;5374;42.742;23.266;2023-04-25T01:12:54;94619.53;;;12.50;100.00
10652;BME280;5374;42.742;23.266;2023-04-25T01:15:41;94605.03;;;12.38;100.00
10652;BME280;5374;42.742;23.266;2023-04-25T01:18:31;94617.81;;;12.36;100.00
10652;BME280;5374;42.742;23.266;2023-04-25T01:21:19;94607.47;;;12.29;100.00
10652;BME280;5374;42.742;23.266;2023-04-25T01:24:07;94610.97;;;12.24;100.00
10652;BME280;5374;42.742;23.266;2023-04-25T01:26:54;94607.25;;;12.25;100.00
10652;BME280;5374;42.742;23.266;2023-04-25T01:29:42;94603.84;;;12.20;100.00
10652;BME280;5374;42.742;23.266;2023-04-25T01:32:30;94602.59;;;12.12;100.00
10652;BME280;5374;42.742;23.266;2023-04-25T01:35:24;94599.38;;;12.15;100.00
10652;BME280;5374;42.742;23.266;2023-04-25T01:38:13;94605.75;;;12.14;100.00
10652;BME280;5374;42.742;23.266;2023-04-25T01:41:01;94601.34;;;11.99;100.00
10652;BME280;5374;42.742;23.266;2023-04-25T01:43:48;94607.44;;;12.05;100.00
10652;BME280;5374;42.742;23.266;2023-04-25T01:46:35;94598.47;;;11.96;100.00
10652;BME280;5374;42.742;23.266;2023-04-25T01:49:23;94603.31;;;11.89;100.00
10652;BME280;5374;42.742;23.266;2023-04-25T01:52:10;94594.81;;;11.87;100.00
10652;BME280;5374;42.742;23.266;2023-04-25T01:54:59;94578.16;;;11.71;100.00
10652;BME280;5374;42.742;23.266;2023-04-25T01:57:47;94605.47;;;11.82;100.00
10652;BME280;5374;42.742;23.266;2023-04-25T02:00:35;94559.44;;;11.47;100.00
10652;BME280;5374;42.742;23.266;2023-04-25T02:03:23;94601.84;;;11.68;100.00
10652;BME280;5374;42.742;23.266;2023-04-25T02:06:10;94608.41;;;11.75;100.00
10652;BME280;5374;42.742;23.266;2023-04-25T02:08:58;94606.81;;;11.79;100.00
10652;BME280;5374;42.742;23.266;2023-04-25T02:11:46;94606.81;;;11.79;100.00
10652;BME280;5374;42.742;23.266;2023-04-25T02:14:33;94605.22;;;11.78;100.00
10652;BME280;5374;42.742;23.266;2023-04-25T02:17:20;94601.22;;;11.81;100.00
10652;BME280;5374;42.742;23.266;2023-04-25T02:20:09;94583.22;;;11.68;100.00
10652;BME280;5374;42.742;23.266;2023-04-25T02:22:56;94586.38;;;11.75;100.00
10652;BME280;5374;42.742;23.266;2023-04-25T02:25:43;94582.41;;;11.72;100.00
10652;BME280;5374;42.742;23.266;2023-04-25T02:28:31;94572.59;;;11.68;100.00
10652;BME280;5374;42.742;23.266;2023-04-25T02:31:18;94571.00;;;11.67;100.00
10652;BME280;5374;42.742;23.266;2023-04-25T02:34:06;94568.09;;;11.63;100.00
10652;BME280;5374;42.742;23.266;2023-04-25T02:36:53;94569.44;;;11.60;100.00
10652;BME280;5374;42.742;23.266;2023-04-25T02:39:40;94563.09;;;11.56;100.00
10652;BME280;5374;42.742;23.266;2023-04-25T02:42:27;94558.63;;;11.52;100.00
10652;BME280;5374;42.742;23.266;2023-04-25T02:45:16;94548.00;;;11.47;100.00
10652;BME280;5374;42.742;23.266;2023-04-25T02:48:03;94544.09;;;11.34;100.00
10652;BME280;5374;42.742;23.266;2023-04-25T02:50:50;94550.44;;;11.38;100.00
10652;BME280;5374;42.742;23.266;2023-04-25T02:53:38;94556.84;;;11.32;100.00
10652;BME280;5374;42.742;23.266;2023-04-25T02:56:25;94545.25;;;11.23;100.00
10652;BME280;5374;42.742;23.266;2023-04-25T02:59:12;94552.69;;;11.21;100.00
10652;BME280;5374;42.742;23.266;2023-04-25T03:02:01;94555.66;;;11.14;100.00
10652;BME280;5374;42.742;23.266;2023-04-25T03:04:48;94551.41;;;11.08;100.00
10652;BME280;5374;42.742;23.266;2023-04-25T03:07:36;94532.63;;;11.00;100.00
10652;BME280;5374;42.742;23.266;2023-04-25T03:10:26;94550.69;;;11.03;100.00
10652;BME280;5374;42.742;23.266;2023-04-25T03:13:13;94539.09;;;10.83;100.00
10652;BME280;5374;42.742;23.266;2023-04-25T03:16:00;94551.53;;;10.88;100.00
10652;BME280;5374;42.742;23.266;2023-04-25T03:18:49;94553.63;;;10.91;100.00
10652;BME280;5374;42.742;23.266;2023-04-25T03:21:36;94548.66;;;10.84;100.00
10652;BME280;5374;42.742;23.266;2023-04-25T03:24:23;94546.75;;;10.85;100.00
10652;BME280;5374;42.742;23.266;2023-04-25T03:27:12;94548.66;;;10.84;100.00
10652;BME280;5374;42.742;23.266;2023-04-25T03:29:59;94543.81;;;10.86;100.00
10652;BME280;5374;42.742;23.266;2023-04-25T03:32:47;94547.81;;;10.89;100.00
10652;BME280;5374;42.742;23.266;2023-04-25T03:35:35;94557.63;;;10.93;100.00
10652;BME280;5374;42.742;23.266;2023-04-25T03:38:22;94529.56;;;10.77;100.00
10652;BME280;5374;42.742;23.266;2023-04-25T03:41:09;94550.69;;;10.98;100.00
10652;BME280;5374;42.742;23.266;2023-04-25T03:43:56;94546.44;;;11.02;100.00
10652;BME280;5374;42.742;23.266;2023-04-25T03:46:43;94550.63;;;11.08;100.00
10652;BME280;5374;42.742;23.266;2023-04-25T03:49:31;94542.19;;;11.01;100.00
10652;BME280;5374;42.742;23.266;2023-04-25T03:52:19;94531.03;;;10.99;100.00
10652;BME280;5374;42.742;23.266;2023-04-25T03:55:07;94548.69;;;11.23;100.00
10652;BME280;5374;42.742;23.266;2023-04-25T03:57:54;94552.63;;;11.31;100.00
10652;BME280;5374;42.742;23.266;2023-04-25T04:00:42;94552.53;;;11.46;100.00
10652;BME280;5374;42.742;23.266;2023-04-25T04:03:29;94558.50;;;11.67;100.00
10652;BME280;5374;42.742;23.266;2023-04-25T04:06:16;94554.94;;;11.82;100.00
10652;BME280;5374;42.742;23.266;2023-04-25T04:09:05;94556.50;;;12.17;100.00
10652;BME280;5374;42.742;23.266;2023-04-25T04:11:56;94553.19;;;13.39;100.00
10652;BME280;5374;42.742;23.266;2023-04-25T04:14:43;94547.56;;;14.84;100.00
10652;BME280;5374;42.742;23.266;2023-04-25T04:17:30;94544.28;;;14.87;100.00
10652;BME280;5374;42.742;23.266;2023-04-25T04:20:18;94550.34;;;14.33;100.00
10652;BME280;5374;42.742;23.266;2023-04-25T04:23:05;94542.25;;;13.92;100.00
10652;BME280;5374;42.742;23.266;2023-04-25T04:25:54;94544.97;;;13.73;100.00
10652;BME280;5374;42.742;23.266;2023-04-25T04:28:42;94552.41;;;13.57;100.00
10652;BME280;5374;42.742;23.266;2023-04-25T04:31:29;94546.66;;;13.50;100.00
10652;BME280;5374;42.742;23.266;2023-04-25T04:34:18;94556.81;;;13.48;100.00
10652;BME280;5374;42.742;23.266;2023-04-25T04:37:05;94540.94;;;13.38;100.00
10652;BME280;5374;42.742;23.266;2023-04-25T04:39:54;94559.78;;;13.28;100.00
10652;BME280;5374;42.742;23.266;2023-04-25T04:42:42;94566.25;;;13.22;100.00
10652;BME280;5374;42.742;23.266;2023-04-25T04:45:30;94547.19;;;13.10;100.00
10652;BME280;5374;42.742;23.266;2023-04-25T04:48:18;94565.34;;;13.08;100.00
10652;BME280;5374;42.742;23.266;2023-04-25T04:51:06;94575.41;;;13.11;100.00
10652;BME280;5374;42.742;23.266;2023-04-25T04:53:54;94562.19;;;13.06;100.00
10652;BME280;5374;42.742;23.266;2023-04-25T04:56:44;94565.91;;;13.05;100.00
10652;BME280;5374;42.742;23.266;2023-04-25T04:59:32;94554.75;;;13.02;100.00
10652;BME280;5374;42.742;23.266;2023-04-25T05:02:21;94568.88;;;13.03;100.00
10652;BME280;5374;42.742;23.266;2023-04-25T05:05:08;94565.91;;;13.05;100.00
10652;BME280;5374;42.742;23.266;2023-04-25T05:07:56;94571.25;;;13.05;100.00
10652;BME280;5374;42.742;23.266;2023-04-25T05:10:43;94576.28;;;13.06;100.00
10652;BME280;5374;42.742;23.266;2023-04-25T05:13:30;94584.81;;;13.08;100.00
10652;BME280;5374;42.742;23.266;2023-04-25T05:16:19;94578.16;;;13.06;100.00
10652;BME280;5374;42.742;23.266;2023-04-25T05:19:06;94585.50;;;13.14;100.00
10652;BME280;5374;42.742;23.266;2023-04-25T05:21:53;94587.06;;;13.20;100.00
10652;BME280;5374;42.742;23.266;2023-04-25T05:24:40;94587.56;;;13.22;100.00
10652;BME280;5374;42.742;23.266;2023-04-25T05:27:27;94584.28;;;13.30;100.00
10652;BME280;5374;42.742;23.266;2023-04-25T05:30:14;94584.84;;;13.27;100.00
10652;BME280;5374;42.742;23.266;2023-04-25T05:33:03;94583.81;;;13.23;100.00
10652;BME280;5374;42.742;23.266;2023-04-25T05:35:50;94561.00;;;13.12;100.00
10652;BME280;5374;42.742;23.266;2023-04-25T05:38:37;94576.56;;;13.28;100.00
10652;BME280;5374;42.742;23.266;2023-04-25T05:41:24;94578.28;;;13.38;100.00
10652;BME280;5374;42.742;23.266;2023-04-25T05:44:11;94575.03;;;13.41;100.00
10652;BME280;5374;42.742;23.266;2023-04-25T05:46:59;94575.50;;;13.48;100.00
10652;BME280;5374;42.742;23.266;2023-04-25T05:49:47;94574.53;;;13.58;100.00
10652;BME280;5374;42.742;23.266;2023-04-25T05:52:35;94567.19;;;13.68;100.00
10652;BME280;5374;42.742;23.266;2023-04-25T05:55:22;94573.25;;;13.74;100.00
10652;BME280;5374;42.742;23.266;2023-04-25T05:58:09;94574.94;;;13.84;100.00
10652;BME280;5374;42.742;23.266;2023-04-25T06:00:56;94586.75;;;13.96;100.00
10652;BME280;5374;42.742;23.266;2023-04-25T06:03:43;94581.66;;;14.00;100.00
10652;BME280;5374;42.742;23.266;2023-04-25T06:06:32;94561.38;;;13.99;100.00
10652;BME280;5374;42.742;23.266;2023-04-25T06:09:19;94572.88;;;14.13;100.00
10652;BME280;5374;42.742;23.266;2023-04-25T06:12:07;94552.53;;;14.17;100.00
10652;BME280;5374;42.742;23.266;2023-04-25T06:14:54;94569.06;;;14.33;100.00
10652;BME280;5374;42.742;23.266;2023-04-25T06:17:41;94569.25;;;14.36;100.00
10652;BME280;5374;42.742;23.266;2023-04-25T06:20:28;94578.22;;;14.46;100.00
10652;BME280;5374;42.742;23.266;2023-04-25T06:23:17;94577.53;;;14.54;100.00
10652;BME280;5374;42.742;23.266;2023-04-25T06:26:04;94575.19;;;14.66;100.00
10652;BME280;5374;42.742;23.266;2023-04-25T06:28:51;94575.66;;;15.72;100.00
10652;BME280;5374;42.742;23.266;2023-04-25T06:31:38;94577.06;;;16.68;100.00
10652;BME280;5374;42.742;23.266;2023-04-25T06:34:25;94583.66;;;17.01;100.00
10652;BME280;5374;42.742;23.266;2023-04-25T06:37:12;94576.63;;;17.40;100.00
10652;BME280;5374;42.742;23.266;2023-04-25T06:40:01;94582.56;;;17.68;100.00
10652;BME280;5374;42.742;23.266;2023-04-25T06:42:48;94591.75;;;17.84;100.00
10652;BME280;5374;42.742;23.266;2023-04-25T06:45:36;94589.38;;;18.00;100.00
10652;BME280;5374;42.742;23.266;2023-04-25T06:48:23;94596.28;;;18.35;100.00
10652;BME280;5374;42.742;23.266;2023-04-25T06:51:10;94569.53;;;18.39;100.00
10652;BME280;5374;42.742;23.266;2023-04-25T06:53:59;94575.72;;;18.39;100.00
10652;BME280;5374;42.742;23.266;2023-04-25T06:56:47;94586.97;;;17.90;100.00
10652;BME280;5374;42.742;23.266;2023-04-25T06:59:34;94556.63;;;17.63;100.00
10652;BME280;5374;42.742;23.266;2023-04-25T07:02:21;94591.22;;;17.65;100.00
10652;BME280;5374;42.742;23.266;2023-04-25T07:05:09;94589.91;;;17.45;100.00
10652;BME280;5374;42.742;23.266;2023-04-25T07:07:56;94582.16;;;17.26;100.00
10652;BME280;5374;42.742;23.266;2023-04-25T07:10:43;94575.31;;;17.03;79.42
10652;BME280;5374;42.742;23.266;2023-04-25T07:13:33;94591.47;;;16.81;80.25
10652;BME280;5374;42.742;23.266;2023-04-25T07:16:20;94590.56;;;16.63;81.66
10652;BME280;5374;42.742;23.266;2023-04-25T07:19:07;94585.97;;;16.32;83.70
10652;BME280;5374;42.742;23.266;2023-04-25T07:21:54;94577.34;;;16.13;85.98
10652;BME280;5374;42.742;23.266;2023-04-25T07:24:41;94579.56;;;16.11;87.45
10652;BME280;5374;42.742;23.266;2023-04-25T07:27:28;94576.06;;;16.11;87.32
10652;BME280;5374;42.742;23.266;2023-04-25T07:30:17;94581.31;;;16.16;89.27
10652;BME280;5374;42.742;23.266;2023-04-25T07:33:04;94578.16;;;16.14;88.79
10652;BME280;5374;42.742;23.266;2023-04-25T07:35:52;94555.69;;;16.23;89.48
10652;BME280;5374;42.742;23.266;2023-04-25T07:38:39;94574.66;;;16.35;86.93
10652;BME280;5374;42.742;23.266;2023-04-25T07:41:26;94573.69;;;16.31;85.84
10652;BME280;5374;42.742;23.266;2023-04-25T07:44:13;94569.25;;;16.27;86.07
10652;BME280;5374;42.742;23.266;2023-04-25T07:47:02;94575.06;;;16.20;87.18
10652;BME280;5374;42.742;23.266;2023-04-25T07:49:49;94568.47;;;16.26;88.74
10652;BME280;5374;42.742;23.266;2023-04-25T07:52:36;94564.72;;;16.36;86.33
10652;BME280;5374;42.742;23.266;2023-04-25T07:55:23;94573.19;;;16.83;84.66
10652;BME280;5374;42.742;23.266;2023-04-25T07:58:11;94564.44;;;17.08;78.25
10652;BME280;5374;42.742;23.266;2023-04-25T08:00:58;94568.88;;;17.21;75.32
10652;BME280;5374;42.742;23.266;2023-04-25T08:03:47;94561.00;;;17.25;74.69
10652;BME280;5374;42.742;23.266;2023-04-25T08:06:34;94561.66;;;17.48;74.53
10652;BME280;5374;42.742;23.266;2023-04-25T08:09:21;94552.00;;;17.29;74.33
10652;BME280;5374;42.742;23.266;2023-04-25T08:12:08;94561.06;;;17.59;71.97
10652;BME280;5374;42.742;23.266;2023-04-25T08:14:56;94560.09;;;17.47;71.42
10652;BME280;5374;42.742;23.266;2023-04-25T08:17:43;94560.09;;;17.38;71.89
10652;BME280;5374;42.742;23.266;2023-04-25T08:20:32;94567.47;;;17.24;74.81
10652;BME280;5374;42.742;23.266;2023-04-25T08:23:19;94556.34;;;16.99;77.23
10652;BME280;5374;42.742;23.266;2023-04-25T08:26:06;94557.53;;;16.76;78.21
10652;BME280;5374;42.742;23.266;2023-04-25T08:28:53;94563.91;;;16.58;78.47
10652;BME280;5374;42.742;23.266;2023-04-25T08:31:40;94561.84;;;16.55;82.21
10652;BME280;5374;42.742;23.266;2023-04-25T08:34:27;94568.38;;;16.40;87.49
10652;BME280;5374;42.742;23.266;2023-04-25T08:37:16;94579.03;;;16.31;91.46
10652;BME280;5374;42.742;23.266;2023-04-25T08:40:06;94572.72;;;16.27;96.81
10652;BME280;5374;42.742;23.266;2023-04-25T08:42:58;94553.97;;;16.05;100.00
10652;BME280;5374;42.742;23.266;2023-04-25T08:45:48;94551.91;;;16.24;100.00
10652;BME280;5374;42.742;23.266;2023-04-25T08:48:37;94550.31;;;16.85;100.00
10652;BME280;5374;42.742;23.266;2023-04-25T08:51:25;94546.50;;;17.43;87.07
10652;BME280;5374;42.742;23.266;2023-04-25T08:54:15;94543.53;;;17.88;79.96
10652;BME280;5374;42.742;23.266;2023-04-25T08:57:02;94532.31;;;17.94;85.53
10652;BME280;5374;42.742;23.266;2023-04-25T08:59:51;94536.19;;;18.31;77.65
10652;BME280;5374;42.742;23.266;2023-04-25T09:02:40;94536.22;;;18.23;76.48
10652;BME280;5374;42.742;23.266;2023-04-25T09:05:29;94541.56;;;18.31;71.69
10652;BME280;5374;42.742;23.266;2023-04-25T09:08:16;94526.06;;;18.45;77.29
10652;BME280;5374;42.742;23.266;2023-04-25T09:11:04;94522.22;;;19.23;74.04
10652;BME280;5374;42.742;23.266;2023-04-25T09:14:10;94521.63;;;19.67;68.07
10652;BME280;5374;42.742;23.266;2023-04-25T09:17:02;94521.69;;;19.59;64.39
10652;BME280;5374;42.742;23.266;2023-04-25T09:19:50;94504.69;;;19.88;62.36
10652;BME280;5374;42.742;23.266;2023-04-25T09:22:38;94503.53;;;19.89;62.54
10652;BME280;5374;42.742;23.266;2023-04-25T09:25:25;94492.97;;;19.84;62.02
10652;BME280;5374;42.742;23.266;2023-04-25T09:28:14;94509.06;;;19.71;62.88
10652;BME280;5374;42.742;23.266;2023-04-25T09:31:01;94517.16;;;19.51;62.55
10652;BME280;5374;42.742;23.266;2023-04-25T09:33:48;94529.00;;;18.99;64.94
10652;BME280;5374;42.742;23.266;2023-04-25T09:36:35;94526.88;;;18.84;65.40
10652;BME280;5374;42.742;23.266;2023-04-25T09:39:22;94506.88;;;18.64;68.31
10652;BME280;5374;42.742;23.266;2023-04-25T09:42:11;94519.63;;;18.76;64.72
10652;BME280;5374;42.742;23.266;2023-04-25T09:45:00;94520.63;;;18.63;61.45
10652;BME280;5374;42.742;23.266;2023-04-25T09:47:48;94517.69;;;18.85;63.09
10652;BME280;5374;42.742;23.266;2023-04-25T09:50:36;94502.56;;;18.72;59.64
10652;BME280;5374;42.742;23.266;2023-04-25T09:53:23;94507.91;;;19.10;61.93
10652;BME280;5374;42.742;23.266;2023-04-25T09:56:11;94511.72;;;19.30;58.07
10652;BME280;5374;42.742;23.266;2023-04-25T09:58:58;94512.19;;;19.61;58.26
10652;BME280;5374;42.742;23.266;2023-04-25T10:01:48;94506.84;;;19.73;59.78
10652;BME280;5374;42.742;23.266;2023-04-25T10:04:36;94510.91;;;19.79;59.51
10652;BME280;5374;42.742;23.266;2023-04-25T10:07:26;94510.50;;;19.90;57.77
10652;BME280;5374;42.742;23.266;2023-04-25T10:10:16;94503.94;;;19.78;57.90
10652;BME280;5374;42.742;23.266;2023-04-25T10:13:05;94509.69;;;19.56;59.50
10652;BME280;5374;42.742;23.266;2023-04-25T10:15:53;94511.59;;;19.47;60.33
10652;BME280;5374;42.742;23.266;2023-04-25T10:18:42;94517.53;;;19.40;62.45
10652;BME280;5374;42.742;23.266;2023-04-25T10:21:31;94523.16;;;19.27;62.85
10652;BME280;5374;42.742;23.266;2023-04-25T10:24:20;94533.19;;;18.88;58.84
10652;BME280;5374;42.742;23.266;2023-04-25T10:27:07;94548.56;;;18.15;57.76
10652;BME280;5374;42.742;23.266;2023-04-25T10:30:01;94528.06;;;17.59;60.26
10652;BME280;5374;42.742;23.266;2023-04-25T10:32:49;94531.97;;;17.27;63.18
10652;BME280;5374;42.742;23.266;2023-04-25T10:35:38;94530.94;;;16.88;67.28
10652;BME280;5374;42.742;23.266;2023-04-25T10:38:26;94525.28;;;16.59;69.82
10652;BME280;5374;42.742;23.266;2023-04-25T10:41:13;94515.41;;;16.37;72.28
10652;BME280;5374;42.742;23.266;2023-04-25T10:44:01;94522.88;;;16.49;71.82
10652;BME280;5374;42.742;23.266;2023-04-25T10:46:48;94499.88;;;17.04;73.52
10652;BME280;5374;42.742;23.266;2023-04-25T10:49:37;94504.06;;;17.80;75.38
10652;BME280;5374;42.742;23.266;2023-04-25T10:52:26;94507.63;;;18.27;69.65
10652;BME280;5374;42.742;23.266;2023-04-25T10:55:15;94503.47;;;18.76;66.31
10652;BME280;5374;42.742;23.266;2023-04-25T10:58:02;94501.56;;;18.85;61.40
10652;BME280;5374;42.742;23.266;2023-04-25T11:00:49;94507.66;;;18.65;58.68
10652;BME280;5374;42.742;23.266;2023-04-25T11:03:41;94512.22;;;18.73;62.58
10652;BME280;5374;42.742;23.266;2023-04-25T11:06:37;94500.66;;;19.02;63.32
10652;BME280;5374;42.742;23.266;2023-04-25T11:09:32;94497.13;;;18.81;60.75
10652;BME280;5374;42.742;23.266;2023-04-25T11:12:19;94494.25;;;18.94;61.00
10652;BME280;5374;42.742;23.266;2023-04-25T11:15:08;94494.66;;;19.26;59.02
10652;BME280;5374;42.742;23.266;2023-04-25T11:17:55;94494.28;;;19.36;58.24
10652;BME280;5374;42.742;23.266;2023-04-25T11:20:43;94489.38;;;19.08;55.80
10652;BME280;5374;42.742;23.266;2023-04-25T11:23:30;94485.41;;;18.85;56.13
10652;BME280;5374;42.742;23.266;2023-04-25T11:26:20;94480.41;;;18.75;57.21
10652;BME280;5374;42.742;23.266;2023-04-25T11:29:08;94459.00;;;18.40;56.75
10652;BME280;5374;42.742;23.266;2023-04-25T11:31:56;94471.31;;;18.50;57.75
10652;BME280;5374;42.742;23.266;2023-04-25T11:34:46;94477.47;;;18.59;57.18
10652;BME280;5374;42.742;23.266;2023-04-25T11:37:33;94472.53;;;18.70;58.00
10652;BME280;5374;42.742;23.266;2023-04-25T11:40:21;94475.75;;;18.84;58.29
10652;BME280;5374;42.742;23.266;2023-04-25T11:43:09;94482.59;;;19.32;57.09
10652;BME280;5374;42.742;23.266;2023-04-25T11:45:56;94478.31;;;19.72;55.38
10652;BME280;5374;42.742;23.266;2023-04-25T11:48:43;94468.56;;;20.01;51.52
10652;BME280;5374;42.742;23.266;2023-04-25T11:51:38;94469.53;;;19.84;51.75
10652;BME280;5374;42.742;23.266;2023-04-25T11:54:25;94470.19;;;19.60;49.47
10652;BME280;5374;42.742;23.266;2023-04-25T11:57:12;94458.97;;;19.58;50.59
10652;BME280;5374;42.742;23.266;2023-04-25T12:00:10;94458.06;;;19.54;48.60
10652;BME280;5374;42.742;23.266;2023-04-25T12:02:58;94453.38;;;19.63;49.66
10652;BME280;5374;42.742;23.266;2023-04-25T12:05:46;94453.16;;;19.68;49.44
10652;BME280;5374;42.742;23.266;2023-04-25T12:08:33;94460.38;;;19.76;49.42
10652;BME280;5374;42.742;23.266;2023-04-25T12:11:20;94457.69;;;19.76;49.34
10652;BME280;5374;42.742;23.266;2023-04-25T12:14:08;94461.56;;;19.88;49.40
10652;BME280;5374;42.742;23.266;2023-04-25T12:16:58;94476.28;;;19.69;48.26
10652;BME280;5374;42.742;23.266;2023-04-25T12:19:46;94516.59;;;19.36;53.70
10652;BME280;5374;42.742;23.266;2023-04-25T12:22:34;94522.59;;;18.83;59.92
10652;BME280;5374;42.742;23.266;2023-04-25T12:25:35;94521.53;;;18.20;63.46
10652;BME280;5374;42.742;23.266;2023-04-25T12:28:23;94509.09;;;17.38;63.11
10652;BME280;5374;42.742;23.266;2023-04-25T12:31:10;94505.25;;;17.04;66.28
10652;BME280;5374;42.742;23.266;2023-04-25T12:34:01;94506.69;;;16.62;66.70
10652;BME280;5374;42.742;23.266;2023-04-25T12:36:49;94505.41;;;16.60;67.37
10652;BME280;5374;42.742;23.266;2023-04-25T12:39:36;94499.34;;;16.77;69.81
10652;BME280;5374;42.742;23.266;2023-04-25T12:42:24;94502.25;;;17.06;70.13
10652;BME280;5374;42.742;23.266;2023-04-25T12:45:11;94502.75;;;17.17;67.85
10652;BME280;5374;42.742;23.266;2023-04-25T12:47:58;94482.38;;;17.07;68.93
10652;BME280;5374;42.742;23.266;2023-04-25T12:50:47;94512.22;;;17.23;70.47
10652;BME280;5374;42.742;23.266;2023-04-25T12:53:35;94525.50;;;17.28;71.03
10652;BME280;5374;42.742;23.266;2023-04-25T12:56:23;94510.63;;;17.22;70.73
10652;BME280;5374;42.742;23.266;2023-04-25T12:59:11;94514.59;;;17.16;70.93
10652;BME280;5374;42.742;23.266;2023-04-25T13:01:58;94524.38;;;17.20;69.80
10652;BME280;5374;42.742;23.266;2023-04-25T13:04:45;94527.84;;;17.21;70.13
10652;BME280;5374;42.742;23.266;2023-04-25T13:07:34;94531.94;;;17.09;70.80
10652;BME280;5374;42.742;23.266;2023-04-25T13:10:21;94526.22;;;17.02;70.71
10652;BME280;5374;42.742;23.266;2023-04-25T13:13:08;94527.66;;;17.08;71.25
10652;BME280;5374;42.742;23.266;2023-04-25T13:15:55;94520.22;;;16.97;70.68
10652;BME280;5374;42.742;23.266;2023-04-25T13:18:42;94527.94;;;16.98;71.24
10652;BME280;5374;42.742;23.266;2023-04-25T13:21:30;94515.03;;;16.92;71.50
10652;BME280;5374;42.742;23.266;2023-04-25T13:24:19;94528.56;;;16.95;72.18
10652;BME280;5374;42.742;23.266;2023-04-25T13:27:06;94529.31;;;16.79;72.20
10652;BME280;5374;42.742;23.266;2023-04-25T13:29:53;94529.97;;;16.53;72.51
10652;BME280;5374;42.742;23.266;2023-04-25T13:32:40;94526.78;;;16.42;72.44
10652;BME280;5374;42.742;23.266;2023-04-25T13:35:28;94512.97;;;16.27;72.46
10652;BME280;5374;42.742;23.266;2023-04-25T13:38:15;94490.03;;;16.03;72.49
10652;BME280;5374;42.742;23.266;2023-04-25T13:41:03;94521.00;;;16.18;72.50
10652;BME280;5374;42.742;23.266;2023-04-25T13:43:52;94533.91;;;16.16;73.08
10652;BME280;5374;42.742;23.266;2023-04-25T13:46:39;94523.19;;;16.16;72.61
10652;BME280;5374;42.742;23.266;2023-04-25T13:49:26;94511.78;;;16.02;75.48
10652;BME280;5374;42.742;23.266;2023-04-25T13:52:13;94519.91;;;16.19;76.97
10652;BME280;5374;42.742;23.266;2023-04-25T13:55:01;94509.44;;;16.40;79.69
10652;BME280;5374;42.742;23.266;2023-04-25T13:57:50;94498.47;;;16.59;78.90
10652;BME280;5374;42.742;23.266;2023-04-25T14:00:38;94507.88;;;16.79;72.06
10652;BME280;5374;42.742;23.266;2023-04-25T14:03:27;94492.59;;;16.96;72.76
10652;BME280;5374;42.742;23.266;2023-04-25T14:06:15;94490.09;;;17.00;73.08
10652;BME280;5374;42.742;23.266;2023-04-25T14:09:08;94489.84;;;17.36;73.47
10652;BME280;5374;42.742;23.266;2023-04-25T14:11:56;94490.31;;;17.38;72.76
10652;BME280;5374;42.742;23.266;2023-04-25T14:14:44;94494.56;;;17.48;72.86
10652;BME280;5374;42.742;23.266;2023-04-25T14:17:31;94486.03;;;17.54;73.18
10652;BME280;5374;42.742;23.266;2023-04-25T14:20:18;94502.94;;;17.55;71.34
10652;BME280;5374;42.742;23.266;2023-04-25T14:23:07;94495.16;;;17.10;69.86
10652;BME280;5374;42.742;23.266;2023-04-25T14:25:54;94478.13;;;17.15;70.44
10652;BME280;5374;42.742;23.266;2023-04-25T14:28:41;94493.59;;;17.26;68.64
10652;BME280;5374;42.742;23.266;2023-04-25T14:31:29;94489.00;;;17.18;68.55
10652;BME280;5374;42.742;23.266;2023-04-25T14:34:16;94483.81;;;17.22;69.59
10652;BME280;5374;42.742;23.266;2023-04-25T14:37:04;94483.31;;;17.02;67.12
10652;BME280;5374;42.742;23.266;2023-04-25T14:39:51;94484.75;;;17.08;67.68
10652;BME280;5374;42.742;23.266;2023-04-25T14:42:38;94485.34;;;16.88;67.70